Time;durP1;ratioP1;P1;durP2;ratioP2;P2;SDS_P1;SDS_P2;PMS_P1;PMS_P2;Temp;Humidity;BMP_temperature;BMP_pressure;BME280_temperature;BME280_humidity;BME280_pressure;Samples;Min_cycle;Max_cycle;Signal;HPM_P1;HPM_P2
2021/11/13 00:01:45;;;;;;;43.90;20.65;;;9.70;99.90;;;;;;5051827;28;20353;-73
2021/11/13 00:04:14;;;;;;;36.63;20.23;;;9.70;99.90;;;;;;5051533;28;20039;-73
2021/11/13 00:06:40;;;;;;;32.15;20.38;;;9.70;99.90;;;;;;5050940;28;20029;-73
2021/11/13 00:09:06;;;;;;;34.47;20.38;;;9.80;99.90;;;;;;5052474;28;20052;-72
2021/11/13 00:11:31;;;;;;;33.63;19.15;;;9.70;99.90;;;;;;5051606;28;20492;-72
2021/11/13 00:14:01;;;;;;;37.38;20.55;;;9.80;99.90;;;;;;5051410;28;20032;-72
2021/11/13 00:16:28;;;;;;;35.95;20.48;;;9.80;99.90;;;;;;5051170;28;20033;-72
2021/11/13 00:18:53;;;;;;;37.88;20.15;;;9.90;99.90;;;;;;5051526;28;20383;-72
2021/11/13 00:21:19;;;;;;;34.85;19.92;;;9.90;99.90;;;;;;5048586;28;20021;-73
2021/11/13 00:23:45;;;;;;;43.78;20.55;;;9.90;99.90;;;;;;5032107;28;20338;-72
2021/11/13 00:26:10;;;;;;;36.20;18.42;;;9.90;99.90;;;;;;5045586;28;20025;-72
2021/11/13 00:28:36;;;;;;;32.15;19.45;;;10.20;99.90;;;;;;5051193;28;20028;-74
2021/11/13 00:31:01;;;;;;;33.00;19.30;;;9.90;99.90;;;;;;5051289;28;20146;-73
2021/11/13 00:33:27;;;;;;;37.45;19.67;;;9.90;99.90;;;;;;5050166;28;20481;-73
2021/11/13 00:35:52;;;;;;;37.35;20.15;;;9.90;99.90;;;;;;5051131;28;20485;-74
2021/11/13 00:38:20;;;;;;;32.15;19.65;;;10.00;99.90;;;;;;5051046;28;20103;-74
2021/11/13 00:40:45;;;;;;;28.45;18.48;;;10.00;99.90;;;;;;5050722;28;20017;-74
2021/11/13 00:43:11;;;;;;;31.65;19.88;;;10.00;99.90;;;;;;5050933;28;20132;-73
2021/11/13 00:45:37;;;;;;;31.38;19.10;;;10.00;99.90;;;;;;5047841;28;20473;-73
2021/11/13 00:48:02;;;;;;;31.13;19.88;;;10.00;99.90;;;;;;5039239;28;20029;-73
2021/11/13 00:50:28;;;;;;;35.75;20.83;;;10.00;99.90;;;;;;5052494;28;20025;-71
2021/11/13 00:52:53;;;;;;;37.05;19.88;;;10.10;99.90;;;;;;5054850;28;20116;-72
2021/11/13 00:55:20;;;;;;;30.38;19.20;;;10.00;99.90;;;;;;5054442;28;20094;-72
2021/11/13 00:57:46;;;;;;;33.60;19.67;;;10.00;99.90;;;;;;5054879;28;20024;-73
2021/11/13 01:00:15;;;;;;;36.78;21.27;;;10.00;99.90;;;;;;5054521;28;20449;-73
2021/11/13 01:02:41;;;;;;;36.05;19.98;;;10.00;99.90;;;;;;5053286;28;20124;-72
2021/11/13 01:05:08;;;;;;;33.35;18.80;;;10.00;99.90;;;;;;5045039;28;20025;-72
2021/11/13 01:07:34;;;;;;;29.17;19.05;;;10.00;99.90;;;;;;5049995;28;20029;-72
2021/11/13 01:09:59;;;;;;;34.75;18.95;;;9.90;99.90;;;;;;5053861;28;20422;-72
2021/11/13 01:12:25;;;;;;;33.08;20.98;;;9.90;99.90;;;;;;5054140;28;20074;-72
2021/11/13 01:14:51;;;;;;;31.13;19.40;;;10.00;99.90;;;;;;5054357;28;20021;-72
2021/11/13 01:17:17;;;;;;;33.17;21.27;;;10.00;99.90;;;;;;5054392;28;20029;-72
2021/11/13 01:19:45;;;;;;;31.35;21.20;;;10.00;99.90;;;;;;5053534;28;20021;-72
2021/11/13 01:22:13;;;;;;;34.58;21.23;;;10.00;99.90;;;;;;5053916;28;20029;-72
2021/11/13 01:24:38;;;;;;;38.58;23.65;;;9.90;99.90;;;;;;5053091;28;20028;-73
2021/11/13 01:27:04;;;;;;;32.20;21.77;;;10.00;99.90;;;;;;5054198;28;20028;-73
2021/11/13 01:29:30;;;;;;;35.35;22.35;;;10.00;99.90;;;;;;5053177;28;20083;-72
2021/11/13 01:31:56;;;;;;;29.58;21.70;;;10.00;99.90;;;;;;5054983;28;20548;-72
2021/11/13 01:34:22;;;;;;;34.88;22.80;;;10.10;99.90;;;;;;5053689;28;20017;-72
2021/11/13 01:36:47;;;;;;;36.65;21.85;;;10.00;99.90;;;;;;5053279;28;20035;-73
2021/11/13 01:39:14;;;;;;;37.17;22.35;;;10.00;99.90;;;;;;5054664;28;20082;-72
2021/11/13 01:41:40;;;;;;;35.17;22.25;;;10.00;99.90;;;;;;5053001;28;20417;-73
2021/11/13 01:44:07;;;;;;;40.03;23.00;;;10.00;99.90;;;;;;5053130;28;20037;-72
2021/11/13 01:46:34;;;;;;;32.70;22.52;;;10.10;99.90;;;;;;5042721;28;20022;-73
2021/11/13 01:48:59;;;;;;;40.90;23.30;;;10.10;99.90;;;;;;5050027;28;20029;-72
2021/11/13 01:51:28;;;;;;;35.25;23.15;;;10.20;99.90;;;;;;5052943;28;20039;-72
2021/11/13 01:53:56;;;;;;;36.92;22.33;;;10.10;99.90;;;;;;5053407;28;20481;-71
2021/11/13 01:56:23;;;;;;;31.73;21.13;;;10.10;99.90;;;;;;5053719;28;20021;-72
2021/11/13 01:58:52;;;;;;;34.72;21.42;;;10.20;99.90;;;;;;5053005;28;20400;-72
2021/11/13 02:01:20;;;;;;;29.63;20.55;;;10.30;99.90;;;;;;5053483;28;20028;-72
2021/11/13 02:03:47;;;;;;;37.60;21.10;;;10.30;99.90;;;;;;5053582;28;20091;-72
2021/11/13 02:06:14;;;;;;;33.05;20.25;;;10.40;99.90;;;;;;5052771;28;20434;-73
2021/11/13 02:08:42;;;;;;;32.17;19.60;;;10.40;99.90;;;;;;5053094;28;20076;-72
2021/11/13 02:11:08;;;;;;;31.38;19.73;;;10.50;99.90;;;;;;5053115;28;20029;-72
2021/11/13 02:13:34;;;;;;;31.10;19.63;;;10.50;99.90;;;;;;5052499;28;20046;-72
2021/11/13 02:15:59;;;;;;;31.20;19.45;;;10.50;99.90;;;;;;5052936;28;20143;-72
2021/11/13 02:18:25;;;;;;;33.47;18.23;;;10.60;99.90;;;;;;5053173;28;20020;-73
2021/11/13 02:20:50;;;;;;;27.67;17.70;;;10.60;99.90;;;;;;5052354;28;20021;-73
2021/11/13 02:23:19;;;;;;;25.83;18.38;;;10.60;99.90;;;;;;5052944;28;20041;-73
2021/11/13 02:25:47;;;;;;;30.02;17.52;;;10.70;99.90;;;;;;5052279;28;20021;-73
2021/11/13 02:28:14;;;;;;;29.63;17.85;;;10.60;99.90;;;;;;5052646;28;20043;-73
2021/11/13 02:30:44;;;;;;;37.67;18.90;;;10.60;99.90;;;;;;5053221;28;20033;-72
2021/11/13 02:33:10;;;;;;;31.48;19.02;;;10.70;99.90;;;;;;5052043;28;20497;-72
2021/11/13 02:35:37;;;;;;;28.98;19.02;;;10.60;99.90;;;;;;5052926;28;20114;-73
2021/11/13 02:38:14;;;;;;;33.40;19.17;;;10.60;99.90;;;;;;5053207;28;20055;-71
2021/11/13 02:40:42;;;;;;;31.25;19.13;;;10.60;99.90;;;;;;5052271;28;20037;-72
2021/11/13 02:43:09;;;;;;;37.10;20.20;;;10.50;99.90;;;;;;5052546;28;20056;-72
2021/11/13 02:45:35;;;;;;;36.33;20.48;;;10.60;99.90;;;;;;5049766;28;20025;-71
2021/11/13 02:48:02;;;;;;;29.85;19.02;;;10.60;99.90;;;;;;5040650;28;20070;-73
2021/11/13 02:50:28;;;;;;;31.73;19.67;;;10.60;99.90;;;;;;5052205;28;20038;-73
2021/11/13 02:52:56;;;;;;;38.33;20.30;;;10.70;99.90;;;;;;5052629;28;20115;-72
2021/11/13 02:55:23;;;;;;;32.15;19.77;;;10.70;99.90;;;;;;5051357;28;20426;-72
2021/11/13 02:57:49;;;;;;;31.38;20.23;;;10.70;99.90;;;;;;5043342;28;20025;-71
2021/11/13 03:00:18;;;;;;;33.85;20.58;;;10.70;99.90;;;;;;5032249;28;20083;-72
2021/11/13 03:02:44;;;;;;;37.63;21.80;;;10.70;99.90;;;;;;5034796;28;20045;-72
2021/11/13 03:05:31;;;;;;;35.67;21.38;;;10.70;99.90;;;;;;5047802;28;20031;-72
2021/11/13 03:08:00;;;;;;;34.03;20.15;;;10.70;99.90;;;;;;5037349;28;20028;-74
2021/11/13 03:10:29;;;;;;;34.72;20.70;;;10.70;99.90;;;;;;5051809;28;20023;-72
2021/11/13 03:12:55;;;;;;;34.45;20.90;;;10.70;99.90;;;;;;5051666;28;20036;-71
2021/11/13 03:15:23;;;;;;;33.40;20.38;;;10.70;99.90;;;;;;5043164;28;20028;-72
2021/11/13 03:17:50;;;;;;;39.90;20.42;;;10.70;99.90;;;;;;5046170;28;20104;-72
2021/11/13 03:20:19;;;;;;;37.35;20.17;;;10.70;99.90;;;;;;5052029;28;20021;-72
2021/11/13 03:22:45;;;;;;;37.58;19.38;;;10.70;99.90;;;;;;5050979;28;20037;-72
2021/11/13 03:25:14;;;;;;;34.67;19.33;;;10.80;99.90;;;;;;5051982;28;20027;-72
2021/11/13 03:27:44;;;;;;;34.42;19.88;;;10.80;99.90;;;;;;5051850;28;20056;-72
2021/11/13 03:30:11;;;;;;;30.60;19.17;;;10.80;99.90;;;;;;5051173;28;20125;-72
2021/11/13 03:32:37;;;;;;;41.08;20.38;;;10.70;99.90;;;;;;5041916;28;20025;-73
2021/11/13 03:35:04;;;;;;;34.42;20.17;;;10.70;99.90;;;;;;5047329;28;20017;-72
2021/11/13 03:37:30;;;;;;;31.00;18.67;;;10.70;99.90;;;;;;5051039;28;20067;-72
2021/11/13 03:39:55;;;;;;;34.05;18.13;;;10.70;99.90;;;;;;5051761;28;20029;-72
2021/11/13 03:42:24;;;;;;;33.17;18.00;;;10.70;99.90;;;;;;5050841;28;20151;-72
2021/11/13 03:44:50;;;;;;;29.10;17.20;;;10.70;99.90;;;;;;5051315;28;20385;-74
2021/11/13 03:47:15;;;;;;;27.98;18.23;;;10.70;99.90;;;;;;5051420;28;20017;-72
2021/11/13 03:49:41;;;;;;;28.83;17.02;;;10.80;99.90;;;;;;5050739;28;20428;-72
2021/11/13 03:52:06;;;;;;;32.45;16.58;;;10.70;99.90;;;;;;5050852;28;20368;-72
2021/11/13 03:54:33;;;;;;;32.05;17.08;;;10.70;99.90;;;;;;5051377;28;20473;-71
2021/11/13 03:56:59;;;;;;;27.20;16.48;;;10.80;99.90;;;;;;5051645;28;20021;-73
2021/11/13 03:59:26;;;;;;;29.40;16.65;;;10.80;99.90;;;;;;5050860;28;20369;-73
2021/11/13 04:01:52;;;;;;;25.92;16.90;;;10.80;99.90;;;;;;5052110;28;20052;-73
2021/11/13 04:04:18;;;;;;;27.13;16.50;;;10.80;99.90;;;;;;5051505;28;20088;-72
2021/11/13 04:06:44;;;;;;;32.92;15.65;;;10.50;99.90;;;;;;5041645;28;20030;-73
2021/11/13 04:09:09;;;;;;;27.83;15.88;;;10.90;99.90;;;;;;5046749;28;20025;-73
2021/11/13 04:11:35;;;;;;;27.67;16.05;;;10.90;99.90;;;;;;5050614;28;20021;-73
2021/11/13 04:14:01;;;;;;;26.75;16.67;;;11.00;99.90;;;;;;5051621;28;20111;-73
2021/11/13 04:16:27;;;;;;;24.35;14.93;;;10.90;99.90;;;;;;5052071;28;20072;-72
2021/11/13 04:18:53;;;;;;;25.45;14.32;;;11.00;99.90;;;;;;5051169;28;20025;-71
2021/11/13 04:21:19;;;;;;;17.27;11.30;;;11.00;99.90;;;;;;5051628;28;20017;-73
2021/11/13 04:23:45;;;;;;;19.33;12.38;;;11.10;99.90;;;;;;5051615;28;20056;-72
2021/11/13 04:26:11;;;;;;;20.10;11.50;;;11.00;99.90;;;;;;5053810;28;20187;-72
2021/11/13 04:28:36;;;;;;;17.58;12.70;;;11.00;99.90;;;;;;5054892;28;20029;-72
2021/11/13 04:31:02;;;;;;;25.10;13.68;;;11.00;99.90;;;;;;5055958;28;20024;-72
2021/11/13 04:33:29;;;;;;;23.73;13.25;;;11.00;99.90;;;;;;5054527;28;20025;-72
2021/11/13 04:36:08;;;;;;;17.63;10.98;;;11.00;99.90;;;;;;5055534;28;20044;-72
2021/11/13 04:38:35;;;;;;;21.40;13.55;;;10.90;99.90;;;;;;5049345;28;20501;-72
2021/11/13 04:41:03;;;;;;;22.38;12.45;;;10.90;99.90;;;;;;5046174;28;20035;-73
2021/11/13 04:43:28;;;;;;;20.50;11.20;;;10.90;99.90;;;;;;5054277;28;20052;-72
2021/11/13 04:45:54;;;;;;;16.17;11.57;;;10.80;99.90;;;;;;5055137;28;20021;-72
2021/11/13 04:48:19;;;;;;;19.80;12.55;;;10.80;99.90;;;;;;5053817;28;20366;-71
2021/11/13 04:50:45;;;;;;;16.00;11.35;;;10.70;99.90;;;;;;5055146;28;20092;-72
2021/11/13 04:53:11;;;;;;;28.00;12.63;;;10.70;99.90;;;;;;5054888;28;20486;-71
2021/11/13 04:55:37;;;;;;;18.58;12.15;;;10.70;99.90;;;;;;5053829;28;20412;-72
2021/11/13 04:58:03;;;;;;;18.02;11.73;;;10.60;99.90;;;;;;5054887;28;20025;-73
2021/11/13 05:00:30;;;;;;;16.67;10.90;;;10.50;99.90;;;;;;5054431;28;20022;-73
2021/11/13 05:02:57;;;;;;;16.00;10.45;;;10.50;99.90;;;;;;5055661;28;20037;-73
2021/11/13 05:05:24;;;;;;;18.42;10.38;;;10.50;99.90;;;;;;5055389;28;20111;-71
2021/11/13 05:07:50;;;;;;;13.57;10.20;;;10.60;99.90;;;;;;5039850;28;20025;-72
2021/11/13 05:10:16;;;;;;;14.30;9.20;;;10.50;99.90;;;;;;5054419;28;20017;-72
2021/11/13 05:12:43;;;;;;;9.73;7.60;;;10.50;99.90;;;;;;5054203;28;20029;-72
2021/11/13 05:15:09;;;;;;;13.43;8.35;;;10.60;99.90;;;;;;5053810;28;20489;-72
2021/11/13 05:17:35;;;;;;;16.27;9.15;;;10.50;99.90;;;;;;5054215;28;20531;-72
2021/11/13 05:20:01;;;;;;;11.82;7.88;;;10.50;99.90;;;;;;5054555;28;20025;-72
2021/11/13 05:22:27;;;;;;;13.05;8.93;;;10.50;99.90;;;;;;5053142;28;20037;-72
2021/11/13 05:24:53;;;;;;;12.18;7.88;;;10.50;99.90;;;;;;5054151;28;20066;-72
2021/11/13 05:27:19;;;;;;;9.32;8.38;;;10.50;99.90;;;;;;5054336;28;20039;-72
2021/11/13 05:29:45;;;;;;;14.35;8.80;;;10.60;99.90;;;;;;5053232;28;20420;-72
2021/11/13 05:32:11;;;;;;;11.25;7.80;;;10.60;99.90;;;;;;5054331;28;20021;-71
2021/11/13 05:34:36;;;;;;;12.30;9.10;;;10.50;99.90;;;;;;5054123;28;20067;-72
2021/11/13 05:37:02;;;;;;;13.40;9.27;;;10.50;99.90;;;;;;5054585;28;20016;-73
2021/11/13 05:39:28;;;;;;;14.38;10.65;;;10.60;99.90;;;;;;5040703;28;20030;-73
2021/11/13 05:41:53;;;;;;;18.25;11.40;;;10.60;99.90;;;;;;5052664;28;20040;-72
2021/11/13 05:44:19;;;;;;;15.20;11.10;;;10.60;99.90;;;;;;5053072;28;20025;-72
2021/11/13 05:46:44;;;;;;;14.85;10.75;;;10.50;99.90;;;;;;5053457;28;20037;-72
2021/11/13 05:49:10;;;;;;;21.25;11.85;;;10.50;99.90;;;;;;5053733;28;20021;-73
2021/11/13 05:51:36;;;;;;;16.65;11.15;;;10.50;99.90;;;;;;5052501;28;20074;-73
2021/11/13 05:54:02;;;;;;;15.65;10.77;;;10.60;99.90;;;;;;5053744;28;20096;-73
2021/11/13 05:56:28;;;;;;;19.92;10.75;;;10.60;99.90;;;;;;5053144;28;20059;-73
2021/11/13 05:58:53;;;;;;;14.18;10.20;;;10.60;99.90;;;;;;5052617;28;20113;-73
2021/11/13 06:01:19;;;;;;;14.98;9.57;;;10.60;99.90;;;;;;5049617;28;20036;-71
2021/11/13 06:03:44;;;;;;;19.58;10.30;;;10.60;99.90;;;;;;5047959;28;20034;-71
2021/11/13 06:06:10;;;;;;;14.20;10.25;;;10.60;99.90;;;;;;5046462;28;20025;-72
2021/11/13 06:08:36;;;;;;;16.90;10.07;;;10.60;99.90;;;;;;5050164;28;20040;-72
2021/11/13 06:11:01;;;;;;;14.65;8.82;;;10.50;99.90;;;;;;5049624;28;20374;-71
2021/11/13 06:13:27;;;;;;;16.48;11.30;;;10.60;99.90;;;;;;5050757;28;20145;-72
2021/11/13 06:15:52;;;;;;;16.20;10.65;;;10.60;99.90;;;;;;5047510;28;20480;-72
2021/11/13 06:18:18;;;;;;;20.38;10.77;;;10.60;99.90;;;;;;5047793;28;20095;-71
2021/11/13 06:20:44;;;;;;;16.30;11.23;;;10.60;99.90;;;;;;5046658;28;20076;-72
2021/11/13 06:23:10;;;;;;;13.75;9.43;;;10.50;99.90;;;;;;5049860;28;20039;-72
2021/11/13 06:25:36;;;;;;;15.38;10.07;;;10.50;99.90;;;;;;5049933;28;20130;-71
2021/11/13 06:28:02;;;;;;;17.23;10.35;;;10.60;99.90;;;;;;5049472;28;20099;-72
2021/11/13 06:30:28;;;;;;;17.00;9.70;;;10.60;99.90;;;;;;5049183;28;20060;-71
2021/11/13 06:32:54;;;;;;;16.45;9.73;;;10.60;99.90;;;;;;5047243;28;20027;-72
2021/11/13 06:35:22;;;;;;;14.98;9.35;;;10.60;99.90;;;;;;5052010;28;20048;-73
2021/11/13 06:37:48;;;;;;;13.13;9.75;;;10.60;99.90;;;;;;5046721;28;20547;-73
2021/11/13 06:40:15;;;;;;;17.83;9.68;;;10.60;99.90;;;;;;5046936;28;20017;-71
2021/11/13 06:42:41;;;;;;;13.95;9.05;;;10.60;99.90;;;;;;5043630;28;20056;-72
2021/11/13 06:45:10;;;;;;;17.05;9.35;;;10.70;99.90;;;;;;5047269;28;20021;-71
2021/11/13 06:47:37;;;;;;;13.95;7.85;;;10.70;99.90;;;;;;5047452;28;20025;-72
2021/11/13 06:50:08;;;;;;;16.80;9.40;;;10.70;99.90;;;;;;5046598;28;20017;-72
2021/11/13 06:52:34;;;;;;;26.67;9.40;;;10.70;99.90;;;;;;5047845;28;20021;-72
2021/11/13 06:54:59;;;;;;;14.88;9.07;;;10.70;99.90;;;;;;5048297;28;20025;-71
2021/11/13 06:57:25;;;;;;;24.02;7.75;;;10.70;99.90;;;;;;5050194;28;20109;-72
2021/11/13 06:59:50;;;;;;;11.80;7.55;;;10.70;99.90;;;;;;5049402;28;20021;-72
2021/11/13 07:02:19;;;;;;;21.63;8.77;;;10.70;99.90;;;;;;5048945;28;20029;-73
2021/11/13 07:04:44;;;;;;;19.60;9.18;;;10.70;99.90;;;;;;5045141;28;20025;-72
2021/11/13 07:07:10;;;;;;;15.68;6.55;;;10.80;99.90;;;;;;5048027;28;20059;-72
2021/11/13 07:09:36;;;;;;;12.77;6.53;;;10.80;99.90;;;;;;5048966;28;20021;-72
2021/11/13 07:12:03;;;;;;;16.27;6.95;;;10.70;99.90;;;;;;5050714;28;20103;-72
2021/11/13 07:14:28;;;;;;;11.60;6.15;;;10.80;99.90;;;;;;5048888;28;20035;-73
2021/11/13 07:16:54;;;;;;;29.33;14.18;;;10.70;99.90;;;;;;5045965;28;20021;-72
2021/11/13 07:19:20;;;;;;;35.63;20.25;;;10.70;99.90;;;;;;5047098;28;20468;-72
2021/11/13 07:21:45;;;;;;;27.20;16.42;;;10.70;99.90;;;;;;5047341;28;20013;-71
2021/11/13 07:24:11;;;;;;;22.13;11.35;;;10.70;99.90;;;;;;5049153;28;20037;-72
2021/11/13 07:26:37;;;;;;;15.15;7.35;;;10.80;99.90;;;;;;5043805;28;20047;-71
2021/11/13 07:29:06;;;;;;;18.77;9.95;;;10.80;99.90;;;;;;5052233;28;20021;-72
2021/11/13 07:31:32;;;;;;;17.38;10.02;;;10.80;99.90;;;;;;5053843;28;20314;-72
2021/11/13 07:33:58;;;;;;;13.15;7.82;;;10.80;99.90;;;;;;5051358;28;20024;-72
2021/11/13 07:36:24;;;;;;;10.15;6.10;;;10.80;99.90;;;;;;5042369;28;20466;-73
2021/11/13 07:38:50;;;;;;;9.95;5.68;;;10.70;99.90;;;;;;5048209;28;20108;-72
2021/11/13 07:41:18;;;;;;;9.88;4.55;;;10.80;99.90;;;;;;5049067;28;20023;-72
2021/11/13 07:43:44;;;;;;;11.43;5.07;;;10.80;99.90;;;;;;5045987;28;20075;-72
2021/11/13 07:46:10;;;;;;;10.77;4.47;;;10.80;99.90;;;;;;5049804;28;20523;-72
2021/11/13 07:48:35;;;;;;;7.80;4.68;;;10.80;99.90;;;;;;5049462;28;20116;-72
2021/11/13 07:51:01;;;;;;;10.60;4.60;;;10.80;99.90;;;;;;5050456;28;20079;-72
2021/11/13 07:53:27;;;;;;;11.88;6.13;;;10.80;99.90;;;;;;5045479;28;20074;-73
2021/11/13 07:55:53;;;;;;;9.27;5.30;;;10.90;99.90;;;;;;5042588;28;20435;-73
2021/11/13 07:58:18;;;;;;;7.88;4.78;;;10.90;99.90;;;;;;5042742;28;20021;-74
2021/11/13 08:00:46;;;;;;;13.18;3.95;;;11.00;99.90;;;;;;5052201;28;20036;-72
2021/11/13 08:03:12;;;;;;;15.93;4.68;;;11.10;99.90;;;;;;5047480;28;20053;-74
2021/11/13 08:05:37;;;;;;;6.53;4.43;;;11.10;99.90;;;;;;5050285;28;20024;-74
2021/11/13 08:08:03;;;;;;;10.88;4.85;;;11.10;99.90;;;;;;5051699;28;20389;-73
2021/11/13 08:10:32;;;;;;;9.45;4.97;;;11.10;99.90;;;;;;5052418;28;20444;-73
2021/11/13 08:12:58;;;;;;;9.20;4.82;;;11.10;99.90;;;;;;5052854;28;20040;-74
2021/11/13 08:15:23;;;;;;;12.13;5.60;;;11.10;99.90;;;;;;5053858;28;20454;-73
2021/11/13 08:17:49;;;;;;;5.97;4.25;;;11.20;99.90;;;;;;5050851;28;20524;-73
2021/11/13 08:20:15;;;;;;;9.85;5.57;;;11.10;99.90;;;;;;5045185;28;20534;-74
2021/11/13 08:22:41;;;;;;;10.85;5.85;;;11.20;99.90;;;;;;5049935;28;20041;-76
2021/11/13 08:25:09;;;;;;;10.80;5.63;;;11.20;99.90;;;;;;5045548;28;20017;-75
2021/11/13 08:27:35;;;;;;;7.85;5.55;;;11.30;99.90;;;;;;5050866;28;20017;-74
2021/11/13 08:30:06;;;;;;;5.82;5.28;;;11.30;99.90;;;;;;5049200;28;20027;-76
2021/11/13 08:32:32;;;;;;;5.65;4.65;;;11.30;99.90;;;;;;5050104;28;20060;-76
2021/11/13 08:34:57;;;;;;;7.88;4.88;;;11.40;99.90;;;;;;5050657;28;20053;-74
2021/11/13 08:37:23;;;;;;;5.35;4.75;;;11.40;99.90;;;;;;5051917;28;20027;-74
2021/11/13 08:39:48;;;;;;;7.35;4.28;;;11.40;99.90;;;;;;5048334;28;20033;-75
2021/11/13 08:42:14;;;;;;;8.98;5.13;;;11.50;99.90;;;;;;5039724;28;20041;-76
2021/11/13 08:44:46;;;;;;;7.45;4.78;;;11.50;99.90;;;;;;5035234;28;20099;-76
2021/11/13 08:47:12;;;;;;;6.72;4.25;;;11.60;99.90;;;;;;5036512;28;20025;-75
2021/11/13 08:49:39;;;;;;;7.35;4.25;;;11.60;99.90;;;;;;5052149;28;20108;-75
2021/11/13 08:52:05;;;;;;;6.38;4.07;;;11.70;99.90;;;;;;5049797;28;20018;-75
2021/11/13 08:54:32;;;;;;;6.03;3.95;;;11.80;99.90;;;;;;5050075;28;20044;-74
2021/11/13 08:56:58;;;;;;;9.23;4.85;;;11.80;99.90;;;;;;5053636;28;20028;-75
2021/11/13 08:59:23;;;;;;;8.82;4.40;;;11.80;99.90;;;;;;5051652;28;20029;-74
2021/11/13 09:01:50;;;;;;;8.00;3.92;;;11.80;99.90;;;;;;5050372;28;20481;-74
2021/11/13 09:04:17;;;;;;;8.05;4.70;;;11.90;99.90;;;;;;5048467;28;20485;-75
2021/11/13 09:06:43;;;;;;;6.70;5.22;;;11.90;99.90;;;;;;5045721;28;20425;-75
2021/11/13 09:09:09;;;;;;;7.97;4.70;;;11.90;99.90;;;;;;5051321;28;20063;-76
2021/11/13 09:11:38;;;;;;;5.35;4.22;;;12.00;99.90;;;;;;5053759;28;20078;-77
2021/11/13 09:14:09;;;;;;;13.80;5.55;;;11.90;99.90;;;;;;5053829;28;20358;-75
2021/11/13 09:16:35;;;;;;;7.75;5.07;;;12.10;99.90;;;;;;5054265;28;20053;-77
2021/11/13 09:19:01;;;;;;;5.75;4.97;;;12.20;99.90;;;;;;5055121;28;20520;-76
2021/11/13 09:21:29;;;;;;;11.95;4.88;;;12.40;99.90;;;;;;5050247;28;20029;-78
2021/11/13 09:23:55;;;;;;;8.52;4.35;;;12.50;99.90;;;;;;5033288;28;20030;-76
2021/11/13 09:26:22;;;;;;;13.20;4.70;;;12.70;99.90;;;;;;5033436;28;20116;-75
2021/11/13 09:28:47;;;;;;;6.50;4.22;;;12.80;99.90;;;;;;5035066;28;20095;-75
2021/11/13 09:31:14;;;;;;;8.77;4.55;;;12.90;99.90;;;;;;5032130;28;20041;-76
2021/11/13 09:33:39;;;;;;;5.82;4.55;;;12.90;99.90;;;;;;5036216;28;20514;-76
2021/11/13 09:36:05;;;;;;;11.43;5.18;;;12.90;99.90;;;;;;5038285;28;20024;-75
2021/11/13 09:38:33;;;;;;;8.48;4.70;;;12.80;99.90;;;;;;5030925;28;20025;-73
2021/11/13 09:41:02;;;;;;;11.75;5.43;;;12.80;99.90;;;;;;5030892;28;20123;-73
2021/11/13 09:43:29;;;;;;;6.95;4.60;;;12.80;99.90;;;;;;5029821;28;20076;-74
2021/11/13 09:45:59;;;;;;;5.10;4.15;;;12.80;99.90;;;;;;5032532;28;20100;-75
2021/11/13 09:48:24;;;;;;;8.40;4.88;;;12.80;99.90;;;;;;5031930;28;20030;-75
2021/11/13 09:50:51;;;;;;;7.70;3.63;;;12.80;99.90;;;;;;5031104;28;20032;-76
2021/11/13 09:53:19;;;;;;;6.80;3.80;;;12.90;99.90;;;;;;5032795;28;20029;-75
2021/11/13 09:55:45;;;;;;;11.88;4.05;;;12.90;99.90;;;;;;5033925;28;20032;-75
2021/11/13 09:58:12;;;;;;;4.15;3.47;;;13.00;99.90;;;;;;5041118;28;20025;-77
2021/11/13 10:00:39;;;;;;;6.32;3.53;;;13.00;99.90;;;;;;5042943;28;20105;-78
2021/11/13 10:03:06;;;;;;;7.55;3.75;;;12.90;99.90;;;;;;5039075;28;20505;-77
2021/11/13 10:05:32;;;;;;;9.52;4.00;;;12.90;99.90;;;;;;5041020;28;20400;-76
2021/11/13 10:07:58;;;;;;;7.18;3.45;;;12.90;99.90;;;;;;5037931;28;20389;-75
2021/11/13 10:10:33;;;;;;;3.78;2.80;;;12.90;99.90;;;;;;5030758;28;20104;-75
2021/11/13 10:13:00;;;;;;;4.05;3.05;;;13.10;99.90;;;;;;5034387;28;20032;-77
2021/11/13 10:15:29;;;;;;;10.52;3.00;;;13.10;99.90;;;;;;5033651;28;20025;-76
2021/11/13 10:18:06;;;;;;;4.75;2.90;;;13.10;99.90;;;;;;5034572;28;20033;-76
2021/11/13 10:20:32;;;;;;;5.00;2.55;;;13.20;99.90;;;;;;5033757;28;20064;-75
2021/11/13 10:22:57;;;;;;;6.38;2.60;;;13.10;99.90;;;;;;5032934;28;20041;-76
2021/11/13 10:25:23;;;;;;;5.00;2.75;;;13.00;99.90;;;;;;5030443;28;20428;-76
2021/11/13 10:28:11;;;;;;;6.97;2.55;;;13.00;99.90;;;;;;5035397;28;20033;-75
2021/11/13 10:30:38;;;;;;;8.77;2.78;;;13.00;99.90;;;;;;5031541;28;20479;-78
2021/11/13 10:33:04;;;;;;;4.95;2.47;;;13.10;99.90;;;;;;5029172;28;20257;-76
2021/11/13 10:35:44;;;;;;;11.32;3.15;;;13.10;99.90;;;;;;5038674;28;20378;-77
2021/11/13 10:38:16;;;;;;;6.85;2.92;;;13.10;99.90;;;;;;5030935;28;20470;-76
2021/11/13 10:40:57;;;;;;;9.45;3.80;;;13.20;99.90;;;;;;5029642;28;20029;-75
2021/11/13 10:43:33;;;;;;;7.90;2.72;;;13.30;99.90;;;;;;5033663;28;20052;-76
2021/11/13 10:46:02;;;;;;;6.63;2.72;;;13.30;99.90;;;;;;5033547;28;20485;-78
2021/11/13 10:48:29;;;;;;;5.35;2.53;;;13.30;99.90;;;;;;5025058;28;20057;-75
2021/11/13 10:51:05;;;;;;;4.43;2.60;;;13.30;99.90;;;;;;5031226;28;20070;-77
2021/11/13 10:53:33;;;;;;;6.32;2.72;;;13.30;99.90;;;;;;5025550;28;20052;-77
2021/11/13 10:56:02;;;;;;;7.53;2.80;;;13.30;99.90;;;;;;5064732;28;20033;-76
2021/11/13 10:58:33;;;;;;;7.68;2.75;;;13.40;99.90;;;;;;5031860;28;20023;-76
2021/11/13 11:01:05;;;;;;;2.78;2.28;;;13.40;99.90;;;;;;5032649;28;20032;-76
2021/11/13 11:03:40;;;;;;;8.13;2.25;;;13.50;99.90;;;;;;5020272;28;20041;-76
2021/11/13 11:06:07;;;;;;;6.18;2.25;;;13.50;99.90;;;;;;5037274;28;20100;-77
2021/11/13 11:08:35;;;;;;;2.88;1.80;;;13.50;99.90;;;;;;5026378;28;20030;-78
2021/11/13 11:11:22;;;;;;;5.10;1.92;;;13.60;99.90;;;;;;5033286;28;20035;-77
2021/11/13 11:13:49;;;;;;;8.02;1.83;;;13.60;99.90;;;;;;5038590;28;20033;-76
2021/11/13 11:16:21;;;;;;;3.70;1.63;;;13.70;99.90;;;;;;5018295;28;20359;-77
2021/11/13 11:18:53;;;;;;;3.05;1.90;;;13.70;99.90;;;;;;5041814;28;20116;-76
2021/11/13 11:21:37;;;;;;;3.58;1.45;;;13.80;99.90;;;;;;5031437;28;20017;-78
2021/11/13 11:24:12;;;;;;;3.22;1.75;;;13.80;99.90;;;;;;5033201;28;20416;-79
2021/11/13 11:26:40;;;;;;;4.53;2.05;;;13.90;99.90;;;;;;5038481;28;20025;-76
2021/11/13 11:29:06;;;;;;;5.50;2.15;;;13.90;99.90;;;;;;5051592;28;20033;-77
2021/11/13 11:31:54;;;;;;;6.03;1.73;;;13.80;99.90;;;;;;5034906;28;20057;-78
2021/11/13 11:34:34;;;;;;;4.82;2.10;;;13.90;99.90;;;;;;5033613;28;20037;-77
2021/11/13 11:37:10;;;;;;;2.72;1.98;;;13.90;99.90;;;;;;5022958;28;20090;-77
2021/11/13 11:39:40;;;;;;;4.05;2.30;;;13.90;99.90;;;;;;5033383;28;20029;-76
2021/11/13 11:42:07;;;;;;;5.38;2.10;;;13.80;99.90;;;;;;5031235;28;20053;-76
2021/11/13 11:44:37;;;;;;;3.63;2.25;;;13.80;99.90;;;;;;5032486;28;20132;-79
2021/11/13 11:47:07;;;;;;;4.20;2.40;;;13.80;99.90;;;;;;5039289;28;20113;-78
2021/11/13 11:49:33;;;;;;;5.68;2.40;;;13.70;99.90;;;;;;5030713;28;20030;-77
2021/11/13 11:51:59;;;;;;;7.20;3.05;;;13.70;99.90;;;;;;5032050;28;20056;-77
2021/11/13 11:54:28;;;;;;;4.97;1.80;;;13.70;99.90;;;;;;5032256;28;20028;-77
2021/11/13 11:56:55;;;;;;;6.65;1.40;;;13.80;99.90;;;;;;5030426;28;20029;-75
2021/11/13 11:59:22;;;;;;;10.23;1.70;;;13.90;99.90;;;;;;5031123;28;20080;-76
2021/11/13 12:01:48;;;;;;;8.52;2.30;;;13.90;99.90;;;;;;5033764;28;20064;-77
2021/11/13 12:04:18;;;;;;;4.03;1.73;;;13.90;99.90;;;;;;5030404;28;20029;-70
2021/11/13 12:06:44;;;;;;;;;;;13.90;99.90;;;;;;5031601;28;20068;-78
2021/11/13 12:09:09;;;;;;;4.85;1.88;;;14.00;99.90;;;;;;5027435;28;19948;-78
2021/11/13 12:11:36;;;;;;;5.13;2.35;;;13.90;99.90;;;;;;5030590;28;20030;-78
2021/11/13 12:14:23;;;;;;;5.90;1.73;;;14.00;99.90;;;;;;5032727;28;20064;-77
2021/11/13 12:16:50;;;;;;;4.28;1.58;;;14.10;99.90;;;;;;5029808;28;20037;-78
2021/11/13 12:19:16;;;;;;;4.38;1.85;;;14.20;99.90;;;;;;5036703;28;20105;-78
2021/11/13 12:21:54;;;;;;;5.05;2.05;;;14.30;99.90;;;;;;5031093;28;20448;-78
2021/11/13 12:24:20;;;;;;;7.53;1.52;;;14.20;99.90;;;;;;5030810;28;20079;-77
2021/11/13 12:27:02;;;;;;;4.65;1.35;;;14.00;99.90;;;;;;5032086;28;20013;-78
2021/11/13 12:29:43;;;;;;;4.68;1.50;;;13.90;99.90;;;;;;5031812;28;20105;-78
2021/11/13 12:32:12;;;;;;;;;;;13.80;99.90;;;;;;5039165;28;20048;-78
2021/11/13 12:34:37;;;;;;;7.55;2.58;;;13.60;99.90;;;;;;5037837;28;19905;-78
2021/11/13 12:37:08;;;;;;;4.75;1.67;;;13.60;99.90;;;;;;5037238;28;20070;-78